Time;durP1;ratioP1;P1;durP2;ratioP2;P2;SDS_P1;SDS_P2;PMS_P1;PMS_P2;Temp;Humidity;BMP_temperature;BMP_pressure;BME280_temperature;BME280_humidity;BME280_pressure;Samples;Min_cycle;Max_cycle;Signal;HPM_P1;HPM_P2
2021/12/24 00:00:43;;;;;;;17.60;12.90;;;8.40;90.20;;;;;;5095103;28;20124;-91
2021/12/24 00:03:10;;;;;;;18.15;13.30;;;8.40;90.20;;;;;;5088575;28;20395;-91
2021/12/24 00:05:35;;;;;;;16.35;11.57;;;8.40;90.20;;;;;;5109688;28;20034;-91
2021/12/24 00:08:02;;;;;;;20.95;16.02;;;8.40;90.20;;;;;;5098819;28;20011;-91
2021/12/24 00:10:30;;;;;;;15.07;11.43;;;8.50;90.20;;;;;;5103171;28;20016;-89
2021/12/24 00:13:01;;;;;;;16.25;11.55;;;8.50;90.20;;;;;;5099088;28;20073;-88
2021/12/24 00:18:02;;;;;;;17.10;11.23;;;8.50;90.20;;;;;;5095921;28;20027;-89
2021/12/24 00:21:25;;;;;;;16.70;13.07;;;8.60;90.20;;;;;;5110731;28;20023;-88
2021/12/24 00:35:04;;;;;;;12.93;9.88;;;8.60;90.20;;;;;;5107063;28;20027;-88
2021/12/24 00:36:58;;;;;;;16.35;11.02;;;8.70;90.30;;;;;;5109309;28;20062;-93
2021/12/24 00:39:23;;;;;;;17.42;12.02;;;8.70;90.30;;;;;;5116933;28;20039;-91
2021/12/24 00:41:49;;;;;;;14.90;10.77;;;8.70;90.30;;;;;;5118444;28;20015;-93
2021/12/24 00:44:15;;;;;;;17.33;12.20;;;8.80;90.30;;;;;;5115098;28;20035;-91
2021/12/24 00:46:40;;;;;;;18.60;12.82;;;8.80;90.40;;;;;;5105830;28;20016;-94
2021/12/24 00:49:06;;;;;;;21.15;14.07;;;8.80;90.40;;;;;;5092275;28;20024;-90
2021/12/24 00:51:53;;;;;;;21.08;13.98;;;8.90;90.50;;;;;;5109012;28;20015;-89
2021/12/24 00:57:02;;;;;;;20.50;13.40;;;8.90;90.50;;;;;;5107296;28;20143;-86
2021/12/24 00:59:28;;;;;;;14.15;9.95;;;9.00;90.50;;;;;;5091293;28;20538;-89
2021/12/24 01:01:53;;;;;;;16.20;10.85;;;9.00;90.60;;;;;;5101511;28;20015;-87
2021/12/24 01:04:19;;;;;;;14.23;9.70;;;9.00;90.60;;;;;;5087475;28;20495;-89
2021/12/24 01:06:45;;;;;;;13.18;9.43;;;9.10;90.60;;;;;;5097934;28;20481;-87
2021/12/24 01:09:11;;;;;;;10.55;7.93;;;9.10;90.60;;;;;;5099500;28;20667;-86
2021/12/24 01:11:36;;;;;;;11.73;7.35;;;9.20;90.60;;;;;;5077873;28;20423;-88
2021/12/24 01:14:02;;;;;;;15.10;10.80;;;9.20;90.50;;;;;;5078578;28;20024;-87
2021/12/24 01:16:37;;;;;;;16.33;11.38;;;9.20;90.60;;;;;;5090900;28;20027;-88
2021/12/24 01:19:05;;;;;;;17.98;11.82;;;9.20;90.60;;;;;;5078847;28;20027;-88
2021/12/24 01:24:21;;;;;;;15.10;10.35;;;9.20;90.70;;;;;;5097198;28;20078;-88
2021/12/24 01:27:12;;;;;;;15.00;10.90;;;9.30;90.70;;;;;;5073476;28;20021;-88
2021/12/24 01:29:55;;;;;;;11.25;8.07;;;9.30;90.70;;;;;;5107070;28;20019;-92
2021/12/24 01:38:11;;;;;;;15.18;10.30;;;9.40;90.70;;;;;;5084531;28;20449;-91
2021/12/24 01:41:06;;;;;;;14.52;10.93;;;9.40;90.60;;;;;;5087893;28;20024;-91
2021/12/24 01:43:31;;;;;;;15.80;11.10;;;9.40;90.60;;;;;;5082558;28;20016;-89
2021/12/24 01:46:00;;;;;;;13.40;9.90;;;9.40;90.60;;;;;;5077203;28;20027;-91
2021/12/24 01:48:25;;;;;;;12.43;9.23;;;9.50;90.70;;;;;;5100060;28;20019;-90
2021/12/24 01:50:53;;;;;;;12.50;9.73;;;9.50;90.60;;;;;;5093569;28;20039;-92
2021/12/24 01:53:21;;;;;;;9.38;7.35;;;9.60;90.60;;;;;;5092193;28;20077;-91
2021/12/24 01:55:50;;;;;;;11.48;8.55;;;9.50;90.60;;;;;;5094636;28;20081;-91
2021/12/24 01:58:20;;;;;;;12.43;9.77;;;9.60;90.60;;;;;;5102138;28;20056;-90
2021/12/24 02:00:49;;;;;;;13.00;10.18;;;9.60;90.70;;;;;;5095749;28;20149;-92
2021/12/24 02:03:14;;;;;;;11.95;9.18;;;9.60;90.70;;;;;;5098229;28;20024;-93
2021/12/24 02:05:41;;;;;;;10.82;7.90;;;9.60;90.70;;;;;;5121739;28;20043;-94
2021/12/24 02:08:08;;;;;;;9.30;7.30;;;9.70;90.70;;;;;;5096656;28;20012;-93
2021/12/24 02:10:34;;;;;;;12.35;9.55;;;9.70;90.60;;;;;;5101106;28;20024;-92
2021/12/24 02:13:00;;;;;;;11.00;8.60;;;9.70;90.60;;;;;;5098765;28;20047;-94
2021/12/24 02:29:08;;;;;;;14.52;10.75;;;9.80;90.90;;;;;;5096739;28;20031;-89
2021/12/24 02:31:34;;;;;;;14.10;10.80;;;9.80;90.90;;;;;;5098397;28;20127;-89
2021/12/24 02:34:00;;;;;;;12.63;9.75;;;9.90;90.90;;;;;;5098669;28;20163;-87
2021/12/24 02:36:28;;;;;;;14.15;9.60;;;9.90;90.90;;;;;;5108253;28;20106;-88
2021/12/24 02:38:54;;;;;;;14.80;11.18;;;9.90;90.90;;;;;;5104829;28;20035;-92
2021/12/24 02:41:20;;;;;;;12.93;9.50;;;9.90;90.80;;;;;;5096590;28;20047;-89
2021/12/24 02:43:47;;;;;;;15.43;10.73;;;10.00;90.80;;;;;;5114264;28;20034;-89
2021/12/24 02:46:24;;;;;;;16.60;11.35;;;10.00;90.80;;;;;;5103724;28;20379;-91
2021/12/24 02:54:03;;;;;;;17.67;12.40;;;10.00;90.80;;;;;;5095203;28;20165;-91
2021/12/24 02:56:32;;;;;;;14.95;10.73;;;10.00;90.80;;;;;;5094591;28;20103;-92
2021/12/24 02:59:01;;;;;;;20.35;13.07;;;10.00;90.80;;;;;;5094862;28;20058;-91
2021/12/24 03:01:31;;;;;;;14.93;10.15;;;10.00;90.80;;;;;;5093721;28;20020;-91
2021/12/24 03:03:57;;;;;;;16.35;10.35;;;10.10;90.90;;;;;;5111544;28;20121;-90
2021/12/24 03:06:28;;;;;;;15.05;11.40;;;10.10;91.10;;;;;;5101764;28;20041;-91
2021/12/24 03:08:54;;;;;;;20.52;14.18;;;10.10;90.80;;;;;;5105711;28;20015;-91
2021/12/24 03:11:20;;;;;;;17.27;12.77;;;10.10;90.80;;;;;;5112441;28;20024;-88
2021/12/24 03:13:46;;;;;;;25.73;16.55;;;10.10;90.90;;;;;;5096328;28;20032;-86
2021/12/24 03:16:13;;;;;;;17.35;11.82;;;10.10;91.00;;;;;;5098789;28;20026;-86
2021/12/24 03:18:40;;;;;;;22.73;14.05;;;10.20;91.00;;;;;;5093954;28;20478;-86
2021/12/24 03:26:20;;;;;;;22.27;12.95;;;10.20;90.90;;;;;;5104311;28;20101;-86
2021/12/24 03:28:45;;;;;;;20.02;12.48;;;10.30;90.90;;;;;;5100338;28;20429;-86
2021/12/24 03:31:11;;;;;;;20.38;13.70;;;10.30;90.90;;;;;;5101029;28;20547;-87
2021/12/24 03:33:37;;;;;;;22.10;15.35;;;10.30;90.90;;;;;;5098826;28;20043;-86
2021/12/24 03:36:05;;;;;;;22.02;14.52;;;10.30;91.00;;;;;;5092308;27;20376;-88
2021/12/24 03:38:31;;;;;;;18.38;11.40;;;10.30;91.00;;;;;;5088669;28;20043;-88
2021/12/24 03:40:56;;;;;;;18.60;12.75;;;10.40;91.00;;;;;;5114522;28;20016;-90
2021/12/24 03:43:23;;;;;;;22.60;14.82;;;10.40;91.00;;;;;;5102160;28;20020;-90
2021/12/24 03:45:59;;;;;;;23.70;14.38;;;10.40;91.00;;;;;;5093739;28;20023;-91
2021/12/24 03:48:39;;;;;;;19.25;12.05;;;10.40;91.00;;;;;;5092935;28;20077;-91
2021/12/24 03:56:26;;;;;;;20.52;11.35;;;10.50;90.90;;;;;;5093863;28;20427;-91
2021/12/24 03:58:52;;;;;;;20.20;13.15;;;10.50;91.00;;;;;;5092300;28;20036;-90
2021/12/24 04:01:17;;;;;;;18.70;11.98;;;10.50;90.90;;;;;;5097679;28;20030;-87
2021/12/24 04:03:43;;;;;;;20.52;12.77;;;10.50;90.90;;;;;;5093648;28;20289;-90
2021/12/24 04:06:08;;;;;;;17.33;11.27;;;10.50;90.90;;;;;;5106624;28;20024;-95
2021/12/24 04:08:34;;;;;;;20.80;12.25;;;10.50;90.90;;;;;;5099589;28;20040;-96
2021/12/24 04:11:00;;;;;;;24.35;14.65;;;10.50;90.90;;;;;;5093058;28;20072;-96
2021/12/24 04:13:26;;;;;;;19.00;11.30;;;10.50;90.90;;;;;;5114692;28;20024;-95
2021/12/24 04:15:52;;;;;;;18.45;11.20;;;10.50;90.90;;;;;;5097160;28;20028;-94
2021/12/24 04:18:30;;;;;;;16.50;10.98;;;10.60;90.90;;;;;;5105669;28;20025;-94
2021/12/24 04:26:31;;;;;;;16.52;11.57;;;10.60;90.80;;;;;;5087066;28;20043;-94
2021/12/24 04:28:57;;;;;;;18.55;12.20;;;10.50;90.80;;;;;;5088017;28;20107;-88
2021/12/24 04:31:30;;;;;;;22.50;13.38;;;10.50;90.80;;;;;;5096182;28;20027;-88
2021/12/24 04:33:59;;;;;;;18.92;11.98;;;10.50;90.80;;;;;;5072222;28;20016;-88
2021/12/24 05:03:09;;;;;;;21.92;13.95;;;10.50;90.70;;;;;;5092933;28;20068;-88
2021/12/24 05:06:09;;;;;;;18.98;11.90;;;10.50;90.70;;;;;;5081290;28;20020;-89
2021/12/24 05:08:23;;;;;;;19.08;11.50;;;10.50;90.70;;;;;;5091744;28;20039;-87
2021/12/24 05:10:51;;;;;;;12.43;9.18;;;10.50;90.80;;;;;;5079331;28;20020;-89
2021/12/24 05:13:19;;;;;;;15.48;9.63;;;10.50;90.80;;;;;;5092608;28;20031;-91
2021/12/24 05:15:48;;;;;;;16.67;10.88;;;10.50;90.70;;;;;;5101117;28;20027;-91
2021/12/24 05:19:01;;;;;;;19.92;11.80;;;10.50;90.70;;;;;;5113119;28;20067;-91
2021/12/24 05:21:33;;;;;;;18.67;10.05;;;10.50;90.70;;;;;;5091940;28;20034;-90
2021/12/24 05:24:06;;;;;;;12.90;9.55;;;10.50;90.70;;;;;;5104759;28;20027;-89
2021/12/24 05:26:32;;;;;;;;;;;10.50;90.70;;;;;;5098285;28;20024;-89
2021/12/24 05:28:58;;;;;;;17.33;11.75;;;10.50;90.90;;;;;;5091923;28;19908;-90
2021/12/24 05:31:24;;;;;;;23.83;15.48;;;10.50;90.70;;;;;;5096697;28;20051;-90
2021/12/24 05:33:50;;;;;;;17.17;11.20;;;10.50;90.70;;;;;;5095998;28;20028;-87
2021/12/24 05:36:15;;;;;;;14.38;9.43;;;10.40;90.70;;;;;;5092573;28;20031;-86
2021/12/24 05:38:41;;;;;;;12.90;8.55;;;10.50;90.70;;;;;;5113881;28;20035;-93
2021/12/24 05:41:07;;;;;;;18.33;11.32;;;10.50;90.70;;;;;;5113242;28;20042;-87
2021/12/24 05:43:34;;;;;;;16.05;11.07;;;10.50;90.70;;;;;;5107278;28;20154;-87
2021/12/24 05:46:00;;;;;;;15.27;10.25;;;10.40;90.70;;;;;;5113037;28;20622;-92
2021/12/24 05:48:26;;;;;;;16.52;9.80;;;10.40;90.70;;;;;;5117877;28;20030;-91
2021/12/24 05:50:51;;;;;;;13.63;8.68;;;10.40;90.70;;;;;;5096930;28;20034;-90
2021/12/24 05:53:17;;;;;;;16.00;10.25;;;10.40;90.70;;;;;;5106044;28;20019;-88
2021/12/24 05:55:42;;;;;;;16.35;9.63;;;10.40;90.70;;;;;;5099037;28;20038;-87
2021/12/24 05:58:08;;;;;;;13.07;8.00;;;10.40;90.60;;;;;;5078406;28;20020;-91
2021/12/24 06:00:39;;;;;;;15.98;9.52;;;10.40;90.70;;;;;;5091034;28;20032;-89
2021/12/24 06:03:06;;;;;;;14.85;9.18;;;10.40;90.70;;;;;;5080567;28;20024;-90
2021/12/24 06:05:35;;;;;;;14.52;8.65;;;10.40;90.60;;;;;;5110098;28;20115;-87
2021/12/24 06:08:02;;;;;;;12.75;8.43;;;10.40;90.90;;;;;;5101122;28;20140;-88
2021/12/24 06:10:27;;;;;;;17.27;9.20;;;10.50;90.70;;;;;;5103635;28;20016;-90
2021/12/24 06:12:53;;;;;;;14.70;9.15;;;10.40;90.60;;;;;;5080418;28;20494;-92
2021/12/24 06:15:23;;;;;;;11.05;6.70;;;10.40;90.60;;;;;;5081368;28;20028;-93
2021/12/24 06:17:52;;;;;;;10.05;6.63;;;10.50;90.60;;;;;;5091634;28;20024;-95
2021/12/24 06:20:18;;;;;;;12.73;7.97;;;10.40;90.60;;;;;;5104572;28;20104;-87
2021/12/24 06:22:44;;;;;;;16.00;8.90;;;10.50;90.50;;;;;;5096489;28;20024;-85
2021/12/24 06:25:10;;;;;;;16.02;9.50;;;10.40;90.50;;;;;;5101713;28;20474;-94
2021/12/24 06:27:36;;;;;;;14.52;7.43;;;10.40;90.80;;;;;;5116623;28;20016;-90
2021/12/24 06:30:04;;;;;;;10.18;6.72;;;10.40;90.50;;;;;;5126471;28;20024;-95
2021/12/24 06:32:30;;;;;;;13.38;7.40;;;10.40;90.50;;;;;;5108364;28;20036;-94
2021/12/24 06:34:55;;;;;;;10.27;6.20;;;10.40;90.50;;;;;;5095986;28;20123;-93
2021/12/24 06:37:21;;;;;;;13.65;6.95;;;10.40;90.50;;;;;;5095084;28;20043;-94
2021/12/24 06:39:47;;;;;;;10.45;6.07;;;10.30;90.40;;;;;;5088384;28;20051;-94
2021/12/24 06:42:12;;;;;;;10.93;6.20;;;10.30;90.40;;;;;;5085710;28;20020;-93
2021/12/24 06:44:38;;;;;;;11.65;6.40;;;10.30;90.40;;;;;;5095188;28;20028;-93
2021/12/24 06:47:04;;;;;;;7.97;5.15;;;10.30;90.40;;;;;;5079738;28;20028;-94
2021/12/24 06:49:30;;;;;;;14.80;6.28;;;10.30;90.40;;;;;;5096305;28;20035;-93
2021/12/24 06:51:56;;;;;;;12.95;6.15;;;10.30;90.40;;;;;;5117039;28;20043;-92
2021/12/24 06:54:22;;;;;;;14.70;6.72;;;10.30;90.40;;;;;;5117472;28;20027;-91
2021/12/24 06:56:47;;;;;;;13.48;6.00;;;10.30;90.30;;;;;;5094342;28;20028;-93
2021/12/24 06:59:13;;;;;;;9.52;4.93;;;10.30;90.30;;;;;;5131553;28;20067;-94
2021/12/24 07:01:39;;;;;;;14.02;6.50;;;10.30;90.30;;;;;;5110109;27;20020;-93
2021/12/24 07:04:04;;;;;;;11.05;5.75;;;10.30;90.20;;;;;;5119842;28;20020;-94
2021/12/24 07:06:30;;;;;;;13.57;6.65;;;10.30;90.20;;;;;;5110431;28;20092;-94
2021/12/24 07:08:56;;;;;;;17.75;6.90;;;10.30;90.20;;;;;;5097652;28;20024;-93
2021/12/24 07:11:22;;;;;;;13.70;5.90;;;10.30;90.20;;;;;;5110761;28;20022;-91
2021/12/24 07:13:47;;;;;;;12.55;5.97;;;10.30;90.20;;;;;;5096137;28;20095;-92
2021/12/24 07:16:13;;;;;;;11.77;5.70;;;10.30;90.20;;;;;;5085670;28;20116;-90
2021/12/24 07:18:39;;;;;;;10.25;6.05;;;10.20;90.20;;;;;;5092745;28;20036;-93
2021/12/24 07:21:06;;;;;;;14.10;6.78;;;10.30;90.20;;;;;;5113934;28;20012;-89
2021/12/24 07:23:31;;;;;;;11.93;6.60;;;10.30;90.10;;;;;;5107748;27;20031;-91
2021/12/24 07:25:57;;;;;;;10.50;5.53;;;10.20;90.10;;;;;;5101914;28;20016;-91
2021/12/24 07:28:22;;;;;;;18.02;8.50;;;10.20;90.10;;;;;;5080749;28;20024;-89
2021/12/24 07:30:48;;;;;;;12.98;6.28;;;10.20;90.10;;;;;;5095283;28;20421;-89
2021/12/24 07:33:14;;;;;;;10.35;6.00;;;10.10;90.10;;;;;;5093563;28;20016;-88
2021/12/24 07:35:45;;;;;;;12.05;6.25;;;10.10;90.10;;;;;;5088136;28;20479;-88
2021/12/24 07:38:13;;;;;;;11.63;5.60;;;10.10;90.10;;;;;;5097981;28;20031;-88
2021/12/24 07:40:43;;;;;;;14.68;7.38;;;10.10;90.10;;;;;;5075342;28;20032;-88
2021/12/24 07:43:09;;;;;;;14.77;7.10;;;10.10;90.10;;;;;;5083966;28;20462;-88
2021/12/24 07:45:36;;;;;;;11.85;5.70;;;10.10;90.40;;;;;;5105080;28;20031;-88
2021/12/24 07:48:13;;;;;;;12.05;5.90;;;10.10;90.10;;;;;;5089137;28;20024;-87
2021/12/24 07:53:11;;;;;;;10.23;5.55;;;10.10;90.40;;;;;;5081366;28;20028;-88
2021/12/24 07:55:38;;;;;;;11.07;5.57;;;10.10;90.00;;;;;;5092528;28;20020;-88
2021/12/24 07:58:06;;;;;;;10.95;5.43;;;10.10;90.00;;;;;;5106355;28;20152;-89
2021/12/24 08:00:31;;;;;;;14.02;6.53;;;10.10;90.00;;;;;;5100911;28;20035;-90
2021/12/24 08:02:58;;;;;;;12.55;7.18;;;10.10;90.00;;;;;;5103282;28;20394;-88
2021/12/24 08:05:25;;;;;;;14.27;6.90;;;10.00;90.00;;;;;;5092022;28;20415;-88
2021/12/24 08:07:53;;;;;;;11.32;5.75;;;10.10;90.00;;;;;;5104675;28;20024;-88
2021/12/24 08:10:19;;;;;;;15.05;7.45;;;10.10;90.00;;;;;;5092122;28;20027;-87
2021/12/24 08:12:45;;;;;;;12.57;6.35;;;10.10;90.00;;;;;;5082578;28;20048;-88
2021/12/24 08:15:10;;;;;;;15.90;6.70;;;10.10;90.00;;;;;;5099150;28;20067;-88
2021/12/24 08:17:37;;;;;;;13.05;6.18;;;10.10;90.00;;;;;;5077505;28;20165;-87
2021/12/24 08:20:05;;;;;;;9.75;5.65;;;10.10;90.00;;;;;;5080774;28;20574;-88
2021/12/24 08:22:31;;;;;;;10.07;5.22;;;10.00;90.00;;;;;;5092977;28;20020;-87
2021/12/24 08:24:56;;;;;;;10.48;4.68;;;10.00;90.00;;;;;;5102467;28;20024;-87
2021/12/24 08:27:22;;;;;;;18.60;6.28;;;10.10;90.00;;;;;;5094257;28;20106;-89
2021/12/24 08:29:47;;;;;;;15.38;7.13;;;10.00;89.90;;;;;;5094829;28;20065;-88
2021/12/24 08:32:13;;;;;;;14.27;6.78;;;10.00;89.90;;;;;;5076277;28;20102;-89
2021/12/24 08:34:40;;;;;;;16.08;7.22;;;10.00;90.00;;;;;;5089374;28;20188;-87
2021/12/24 08:37:06;;;;;;;16.02;6.75;;;10.00;90.00;;;;;;5090345;28;20024;-88
2021/12/24 08:39:32;;;;;;;16.70;6.65;;;10.00;90.00;;;;;;5096127;28;20051;-86
2021/12/24 08:41:59;;;;;;;11.15;5.90;;;10.00;90.00;;;;;;5087593;28;20478;-87
2021/12/24 08:44:28;;;;;;;16.50;7.30;;;10.00;89.90;;;;;;5098193;28;20102;-86
2021/12/24 08:46:54;;;;;;;17.15;7.60;;;10.00;89.90;;;;;;5090978;28;20437;-88
2021/12/24 08:49:21;;;;;;;21.50;8.40;;;9.90;89.80;;;;;;5081339;28;20463;-87
2021/12/24 08:51:50;;;;;;;11.35;5.68;;;9.90;89.90;;;;;;5099361;28;20027;-87
2021/12/24 08:54:16;;;;;;;15.63;7.20;;;9.90;90.00;;;;;;5103405;28;20073;-88
2021/12/24 08:56:42;;;;;;;12.38;6.47;;;9.90;89.90;;;;;;5090508;28;20109;-89
2021/12/24 08:59:09;;;;;;;12.40;6.88;;;9.90;89.90;;;;;;5083454;28;20441;-87
2021/12/24 09:01:34;;;;;;;17.73;8.35;;;9.90;89.90;;;;;;5082573;28;20035;-87
2021/12/24 09:04:00;;;;;;;17.45;8.70;;;9.90;89.90;;;;;;5083372;28;20032;-87
2021/12/24 09:06:26;;;;;;;18.00;9.48;;;9.90;89.80;;;;;;5088340;28;20020;-87
2021/12/24 09:08:51;;;;;;;14.82;7.30;;;9.80;89.90;;;;;;5083287;28;20110;-87
2021/12/24 09:11:17;;;;;;;16.83;7.97;;;9.80;89.90;;;;;;5083294;28;20036;-86
2021/12/24 09:13:43;;;;;;;14.68;7.53;;;9.80;89.90;;;;;;5093618;28;20028;-88
2021/12/24 09:16:09;;;;;;;19.83;9.38;;;9.80;90.00;;;;;;5079729;28;20013;-89
2021/12/24 09:18:36;;;;;;;16.48;9.32;;;9.80;90.00;;;;;;5089529;28;20012;-88
2021/12/24 09:21:03;;;;;;;17.67;9.60;;;9.70;90.00;;;;;;5081225;28;20028;-89
2021/12/24 09:23:29;;;;;;;14.25;7.65;;;9.80;90.00;;;;;;5082256;28;20447;-88
2021/12/24 09:25:55;;;;;;;14.70;7.85;;;9.80;90.00;;;;;;5094296;28;20019;-87
2021/12/24 09:28:20;;;;;;;15.48;7.43;;;9.70;90.00;;;;;;5082749;28;20021;-88
2021/12/24 09:30:46;;;;;;;15.00;7.88;;;9.70;90.00;;;;;;5091965;28;20024;-88
2021/12/24 09:33:12;;;;;;;10.00;5.95;;;9.80;90.00;;;;;;5087674;28;20024;-88
2021/12/24 09:35:38;;;;;;;22.88;9.50;;;9.80;90.00;;;;;;5080018;28;20459;-87
2021/12/24 09:38:04;;;;;;;19.95;9.30;;;9.80;90.20;;;;;;5074100;28;20044;-87
2021/12/24 09:40:30;;;;;;;14.77;8.23;;;9.80;90.00;;;;;;5078641;28;20032;-87
2021/12/24 09:42:57;;;;;;;17.50;8.48;;;9.80;90.00;;;;;;5085869;28;20024;-89
2021/12/24 09:45:23;;;;;;;16.30;8.43;;;9.80;90.00;;;;;;5071340;28;20029;-88
2021/12/24 09:47:49;;;;;;;14.43;7.47;;;9.80;90.00;;;;;;5081894;28;20528;-87
2021/12/24 09:50:19;;;;;;;16.30;7.78;;;9.80;89.90;;;;;;5082107;28;20035;-87
2021/12/24 09:52:45;;;;;;;13.98;7.72;;;9.80;90.00;;;;;;5084923;28;20044;-85
2021/12/24 09:55:15;;;;;;;14.20;7.95;;;9.80;90.00;;;;;;5082632;28;20398;-85
2021/12/24 09:57:42;;;;;;;16.80;8.43;;;9.80;90.00;;;;;;5094445;28;20020;-85
2021/12/24 10:00:10;;;;;;;17.75;8.63;;;9.80;90.00;;;;;;5077529;28;20090;-87
2021/12/24 10:02:43;;;;;;;16.08;8.68;;;9.80;90.00;;;;;;5077938;28;20031;-86
2021/12/24 10:05:38;;;;;;;14.13;7.32;;;9.80;90.00;;;;;;5097019;28;20036;-87
2021/12/24 10:08:19;;;;;;;13.52;7.97;;;9.90;90.00;;;;;;5080908;28;20085;-86
2021/12/24 10:10:49;;;;;;;19.20;8.75;;;9.90;90.20;;;;;;5083106;28;20032;-86
2021/12/24 10:13:43;;;;;;;14.52;7.85;;;9.80;89.90;;;;;;5081339;28;20031;-86
2021/12/24 10:16:13;;;;;;;17.02;9.48;;;9.90;90.00;;;;;;5079059;28;20479;-85
2021/12/24 10:18:40;;;;;;;11.48;6.60;;;9.80;90.00;;;;;;5083488;28;20040;-86
2021/12/24 10:21:26;;;;;;;12.65;7.13;;;9.80;90.00;;;;;;5081662;28;20035;-87
2021/12/24 10:23:57;;;;;;;15.02;6.72;;;9.80;90.00;;;;;;5079837;28;20031;-86
2021/12/24 10:26:59;;;;;;;15.57;7.35;;;9.80;90.00;;;;;;5082708;28;20501;-90
2021/12/24 10:29:33;;;;;;;16.42;8.10;;;9.90;90.10;;;;;;5019231;28;20021;-87
2021/12/24 10:32:08;;;;;;;14.02;7.22;;;9.80;90.10;;;;;;5073913;28;20059;-85
2021/12/24 10:34:34;;;;;;;12.25;6.43;;;9.80;90.10;;;;;;5077849;28;20028;-85
2021/12/24 10:37:09;;;;;;;20.08;8.93;;;9.90;90.10;;;;;;5086091;28;20091;-88
2021/12/24 10:39:53;;;;;;;13.55;6.95;;;9.90;90.10;;;;;;5087975;28;20032;-86
2021/12/24 10:42:21;;;;;;;16.55;7.72;;;9.90;90.20;;;;;;5082539;28;20114;-89
2021/12/24 10:44:48;;;;;;;16.27;8.52;;;9.90;90.20;;;;;;5081690;28;20040;-84
2021/12/24 10:47:18;;;;;;;17.17;8.05;;;9.90;90.20;;;;;;5079175;28;20028;-87
2021/12/24 10:52:29;;;;;;;11.90;5.78;;;9.90;90.20;;;;;;5094931;28;20062;-86
2021/12/24 10:55:01;;;;;;;13.98;6.32;;;9.90;90.20;;;;;;5087230;28;20031;-92
2021/12/24 10:57:32;;;;;;;16.60;7.43;;;9.90;90.20;;;;;;5078858;28;20112;-88
2021/12/24 11:00:01;;;;;;;16.42;7.70;;;9.90;90.20;;;;;;5081016;28;20319;-85
2021/12/24 11:02:31;;;;;;;14.73;7.13;;;9.90;90.20;;;;;;5094919;28;20086;-85
2021/12/24 11:04:57;;;;;;;18.45;8.32;;;9.90;90.20;;;;;;5089088;28;20024;-87
2021/12/24 11:07:33;;;;;;;20.80;10.10;;;9.90;90.20;;;;;;5084920;28;20107;-85
2021/12/24 11:10:19;;;;;;;13.02;7.40;;;9.90;90.20;;;;;;5086586;28;20111;-84
2021/12/24 11:12:55;;;;;;;14.05;6.95;;;9.90;90.30;;;;;;5096010;28;20024;-83
2021/12/24 11:15:34;;;;;;;15.32;7.50;;;9.90;90.20;;;;;;5091390;28;20035;-85
2021/12/24 11:18:07;;;;;;;13.27;7.05;;;9.90;90.20;;;;;;5093495;28;20027;-84
2021/12/24 11:20:34;;;;;;;15.13;8.45;;;9.90;90.20;;;;;;5090191;28;20032;-82
2021/12/24 11:23:06;;;;;;;12.43;7.50;;;9.90;90.30;;;;;;5076083;28;20078;-82
2021/12/24 11:25:36;;;;;;;20.40;9.57;;;9.90;90.30;;;;;;5089574;28;20027;-82
2021/12/24 11:28:02;;;;;;;12.57;6.43;;;9.90;90.40;;;;;;5092297;28;20028;-86
2021/12/24 11:30:30;;;;;;;13.48;6.68;;;9.90;90.50;;;;;;5089225;28;20032;-86
2021/12/24 11:32:56;;;;;;;13.02;7.45;;;9.90;90.40;;;;;;5079935;28;20016;-84
2021/12/24 11:35:22;;;;;;;15.75;6.95;;;9.90;90.30;;;;;;5094994;28;20093;-84
2021/12/24 11:37:49;;;;;;;11.20;5.18;;;10.00;90.30;;;;;;5090083;28;20035;-84
2021/12/24 11:40:17;;;;;;;11.73;6.78;;;10.00;90.30;;;;;;5092625;28;20089;-81
2021/12/24 11:42:50;;;;;;;15.45;8.10;;;10.00;90.30;;;;;;5094864;28;20028;-84
2021/12/24 11:45:16;;;;;;;16.27;8.30;;;10.00;90.30;;;;;;5090650;28;20126;-86
2021/12/24 11:47:41;;;;;;;13.65;6.97;;;10.00;90.30;;;;;;5091999;28;20095;-88
2021/12/24 11:50:08;;;;;;;12.13;6.82;;;10.10;90.30;;;;;;5091928;28;20047;-86
2021/12/24 11:52:34;;;;;;;10.13;5.55;;;10.00;90.20;;;;;;5092420;28;20036;-86
2021/12/24 11:55:00;;;;;;;18.42;7.28;;;10.10;90.30;;;;;;5096251;28;20024;-84
2021/12/24 11:57:26;;;;;;;11.40;5.72;;;10.10;90.30;;;;;;5090483;28;20432;-83
2021/12/24 11:59:52;;;;;;;14.52;5.82;;;10.10;90.30;;;;;;5088568;28;20027;-84
2021/12/24 12:02:45;;;;;;;13.35;5.32;;;10.10;90.20;;;;;;5086459;28;20020;-87
2021/12/24 12:05:26;;;;;;;11.10;5.32;;;10.20;90.20;;;;;;5085811;28;20258;-88
2021/12/24 12:08:13;;;;;;;13.43;6.00;;;10.20;90.20;;;;;;5087420;28;20490;-88
2021/12/24 12:10:53;;;;;;;14.98;6.72;;;10.20;90.10;;;;;;5082117;28;20055;-88
2021/12/24 12:13:50;;;;;;;11.68;4.80;;;10.20;90.10;;;;;;5076368;28;20031;-87
2021/12/24 12:16:25;;;;;;;14.75;5.00;;;10.20;90.10;;;;;;5094702;28;20102;-88
2021/12/24 12:19:14;;;;;;;10.73;5.03;;;10.20;90.20;;;;;;5078411;28;20040;-87
2021/12/24 12:21:42;;;;;;;11.63;5.00;;;10.20;90.10;;;;;;5078555;28;20048;-85
2021/12/24 12:26:42;;;;;;;16.63;6.30;;;10.20;90.10;;;;;;5095883;28;20028;-93
2021/12/24 12:29:22;;;;;;;11.77;5.47;;;10.20;90.10;;;;;;5082695;28;20020;-93
2021/12/24 12:31:52;;;;;;;9.38;5.20;;;10.20;90.10;;;;;;5075693;28;20107;-85
2021/12/24 12:34:40;;;;;;;8.43;4.68;;;10.20;90.10;;;;;;5085421;28;20031;-81
2021/12/24 12:37:19;;;;;;;11.80;5.90;;;10.20;90.10;;;;;;5088293;28;20086;-86
2021/12/24 12:39:47;;;;;;;11.82;5.00;;;10.20;90.10;;;;;;5096459;28;20027;-88
2021/12/24 12:42:15;;;;;;;8.88;4.50;;;10.20;90.10;;;;;;5085975;28;20027;-87
2021/12/24 12:44:46;;;;;;;13.25;6.68;;;10.20;90.10;;;;;;5096660;28;20035;-90
2021/12/24 12:47:17;;;;;;;10.65;6.78;;;10.20;90.10;;;;;;5084331;28;20024;-84
2021/12/24 12:49:43;;;;;;;11.48;6.47;;;10.10;90.10;;;;;;5097271;28;20027;-83
2021/12/24 12:52:20;;;;;;;15.93;8.50;;;10.10;90.10;;;;;;5084701;28;20028;-81
2021/12/24 12:54:56;;;;;;;15.32;7.38;;;10.10;90.20;;;;;;5078292;28;20048;-90
2021/12/24 12:57:33;;;;;;;11.90;7.15;;;10.10;90.20;;;;;;5098584;28;20200;-87
2021/12/24 13:00:07;;;;;;;14.05;6.45;;;10.10;90.20;;;;;;5085828;28;20126;-88
2021/12/24 13:05:51;;;;;;;12.02;5.68;;;10.20;90.20;;;;;;5085356;28;20063;-83
2021/12/24 13:08:22;;;;;;;13.13;7.47;;;10.10;90.10;;;;;;5083429;28;20044;-84
2021/12/24 13:11:09;;;;;;;14.57;7.57;;;10.10;90.20;;;;;;5087197;28;20024;-82
2021/12/24 13:13:54;;;;;;;10.10;5.72;;;10.10;90.20;;;;;;5087648;28;20028;-88
2021/12/24 13:16:35;;;;;;;15.20;7.63;;;10.10;90.20;;;;;;5091484;28;20028;-84
2021/12/24 13:24:50;;;;;;;13.32;7.65;;;10.00;90.30;;;;;;5088744;28;20043;-86
2021/12/24 13:27:18;;;;;;;12.35;6.60;;;10.00;90.30;;;;;;5094969;28;20120;-86
2021/12/24 13:29:44;;;;;;;13.85;7.40;;;10.00;90.30;;;;;;5091240;28;20020;-85
2021/12/24 13:32:10;;;;;;;12.70;7.70;;;10.00;90.30;;;;;;5091384;28;20164;-82
2021/12/24 13:34:36;;;;;;;20.40;9.45;;;10.00;90.30;;;;;;5090289;28;20107;-82
2021/12/24 13:37:10;;;;;;;15.13;6.65;;;10.00;90.30;;;;;;5090505;28;20074;-83
2021/12/24 13:39:35;;;;;;;12.43;6.35;;;10.00;90.30;;;;;;5082849;28;20040;-83
2021/12/24 13:42:07;;;;;;;9.68;6.05;;;10.00;90.30;;;;;;5088328;28;20031;-84
2021/12/24 13:44:35;;;;;;;10.55;6.30;;;10.00;90.40;;;;;;5088430;28;20027;-84
2021/12/24 13:47:04;;;;;;;10.50;6.32;;;10.00;90.40;;;;;;5083398;28;20114;-85
2021/12/24 13:50:06;;;;;;;11.50;6.72;;;10.00;90.30;;;;;;5090137;28;20073;-88
2021/12/24 13:55:40;;;;;;;9.55;5.28;;;10.10;90.40;;;;;;5084846;28;20032;-85
2021/12/24 13:58:09;;;;;;;13.18;6.18;;;10.10;90.40;;;;;;5092570;28;20497;-83
2021/12/24 14:00:38;;;;;;;14.30;6.30;;;10.10;90.40;;;;;;5092621;28;20038;-83
2021/12/24 14:03:09;;;;;;;8.68;5.47;;;10.10;90.40;;;;;;5094788;28;20015;-85
2021/12/24 14:05:53;;;;;;;10.32;6.30;;;10.00;90.60;;;;;;5090927;28;20026;-84
2021/12/24 14:08:25;;;;;;;10.02;5.80;;;10.10;90.30;;;;;;5089095;28;20062;-85
2021/12/24 14:11:07;;;;;;;13.85;6.55;;;10.10;90.30;;;;;;5100608;28;20023;-84
2021/12/24 14:13:38;;;;;;;8.27;5.05;;;10.10;90.30;;;;;;5086845;28;20032;-83
2021/12/24 14:16:38;;;;;;;7.95;4.82;;;10.20;90.30;;;;;;5081321;28;20024;-86
2021/12/24 14:19:12;;;;;;;12.20;6.55;;;10.20;90.30;;;;;;5079880;28;20487;-90
2021/12/24 14:21:45;;;;;;;10.00;5.20;;;10.20;90.20;;;;;;5092910;28;20020;-91
2021/12/24 14:24:24;;;;;;;8.75;4.57;;;10.10;90.20;;;;;;5089203;28;20029;-85
2021/12/24 14:26:54;;;;;;;6.68;4.85;;;10.20;90.30;;;;;;5085439;28;20042;-89
2021/12/24 14:29:31;;;;;;;8.65;4.47;;;10.20;90.20;;;;;;5089269;28;20047;-88
2021/12/24 14:32:05;;;;;;;6.60;3.72;;;10.20;90.20;;;;;;5086139;28;20032;-84
2021/12/24 14:34:35;;;;;;;6.95;4.15;;;10.20;90.20;;;;;;5077550;28;20776;-85
2021/12/24 14:37:17;;;;;;;6.47;4.35;;;10.20;90.20;;;;;;5089488;28;20055;-85